Tallahassee International Airport (TLH/KTLH)




Flight Aircraft Arriving
CPX3271 SF34
KMIA - Miami International Airport
United StatesFlorida Miami, Florida
Flight Aircraft Departing
CPX3272 SF34
KMIA - Miami International Airport
United StatesFlorida Miami, Florida
Airport Information
Location: Tallahassee, US
Coordinates: 30.3968 / -84.3509
Elevation:
Time Offset:
Local Time:
UTC Time:
Jet A Price: $0.96/lbs

Current Weather
METAR: KTLH 050453Z AUTO 22004KT 10SM CLR 19/12 A2995 RMK AO2 SLP140 T01890117 402940111
TAF: KTLH 042320Z 0500/0524 19005KT P6SM FEW040 BKN110 FM050200 00000KT P6SM BKN110 FM051100 VRB04KT P6SM BKN060

Recent Arrivals
Date Flight Type Depart
06/08/2019 CPX672 SF34 Miami International Airport (KMIA)
Recent Departures
Date Flight Type Arrive
06/08/2019 CPX671 SF34 Miami International Airport (KMIA)